sensor_id;sensor_type;location;lat;lon;timestamp;P1;durP1;ratioP1;P2;durP2;ratioP2
54945;SDS011;40846;44.788;20.486;2023-04-25T00:00:32;6.80;;;4.47;;
54945;SDS011;40846;44.788;20.486;2023-04-25T00:03:01;6.63;;;4.28;;
54945;SDS011;40846;44.788;20.486;2023-04-25T00:05:28;7.15;;;3.78;;
54945;SDS011;40846;44.788;20.486;2023-04-25T00:07:54;6.65;;;3.80;;
54945;SDS011;40846;44.788;20.486;2023-04-25T00:10:21;8.85;;;4.45;;
54945;SDS011;40846;44.788;20.486;2023-04-25T00:12:47;6.68;;;4.50;;
54945;SDS011;40846;44.788;20.486;2023-04-25T00:15:13;5.70;;;3.42;;
54945;SDS011;40846;44.788;20.486;2023-04-25T00:17:40;5.82;;;3.50;;
54945;SDS011;40846;44.788;20.486;2023-04-25T00:20:06;5.32;;;3.28;;
54945;SDS011;40846;44.788;20.486;2023-04-25T00:22:36;5.32;;;3.60;;
54945;SDS011;40846;44.788;20.486;2023-04-25T00:25:03;7.57;;;3.60;;
54945;SDS011;40846;44.788;20.486;2023-04-25T00:27:29;6.55;;;3.83;;
54945;SDS011;40846;44.788;20.486;2023-04-25T00:29:55;7.00;;;4.10;;
54945;SDS011;40846;44.788;20.486;2023-04-25T00:32:21;8.38;;;4.05;;
54945;SDS011;40846;44.788;20.486;2023-04-25T00:34:47;6.35;;;4.00;;
54945;SDS011;40846;44.788;20.486;2023-04-25T00:37:22;10.27;;;3.95;;
54945;SDS011;40846;44.788;20.486;2023-04-25T00:39:48;6.20;;;3.97;;
54945;SDS011;40846;44.788;20.486;2023-04-25T00:42:14;6.45;;;4.30;;
54945;SDS011;40846;44.788;20.486;2023-04-25T00:44:41;6.43;;;3.78;;
54945;SDS011;40846;44.788;20.486;2023-04-25T00:47:07;6.32;;;3.90;;
54945;SDS011;40846;44.788;20.486;2023-04-25T00:49:33;8.00;;;3.72;;
54945;SDS011;40846;44.788;20.486;2023-04-25T00:51:59;9.10;;;3.78;;
54945;SDS011;40846;44.788;20.486;2023-04-25T00:54:26;6.35;;;3.63;;
54945;SDS011;40846;44.788;20.486;2023-04-25T00:56:52;5.85;;;3.50;;
54945;SDS011;40846;44.788;20.486;2023-04-25T00:59:19;6.75;;;3.15;;
54945;SDS011;40846;44.788;20.486;2023-04-25T01:01:47;5.60;;;3.53;;
54945;SDS011;40846;44.788;20.486;2023-04-25T01:04:13;5.35;;;3.42;;
54945;SDS011;40846;44.788;20.486;2023-04-25T01:06:40;8.50;;;3.30;;
54945;SDS011;40846;44.788;20.486;2023-04-25T01:09:06;4.78;;;3.30;;
54945;SDS011;40846;44.788;20.486;2023-04-25T01:11:32;12.18;;;3.92;;
54945;SDS011;40846;44.788;20.486;2023-04-25T01:13:58;6.18;;;3.35;;
54945;SDS011;40846;44.788;20.486;2023-04-25T01:16:25;6.60;;;4.03;;
54945;SDS011;40846;44.788;20.486;2023-04-25T01:18:51;10.93;;;4.10;;
54945;SDS011;40846;44.788;20.486;2023-04-25T01:21:18;6.75;;;3.63;;
54945;SDS011;40846;44.788;20.486;2023-04-25T01:23:44;6.50;;;4.55;;
54945;SDS011;40846;44.788;20.486;2023-04-25T01:26:11;8.25;;;4.20;;
54945;SDS011;40846;44.788;20.486;2023-04-25T01:28:38;10.50;;;4.45;;
54945;SDS011;40846;44.788;20.486;2023-04-25T01:31:07;7.82;;;4.55;;
54945;SDS011;40846;44.788;20.486;2023-04-25T01:33:33;7.40;;;4.60;;
54945;SDS011;40846;44.788;20.486;2023-04-25T01:35:59;7.00;;;3.70;;
54945;SDS011;40846;44.788;20.486;2023-04-25T01:38:25;9.57;;;4.28;;
54945;SDS011;40846;44.788;20.486;2023-04-25T01:40:51;7.38;;;4.30;;
54945;SDS011;40846;44.788;20.486;2023-04-25T01:43:17;9.30;;;4.00;;
54945;SDS011;40846;44.788;20.486;2023-04-25T01:45:44;6.13;;;3.85;;
54945;SDS011;40846;44.788;20.486;2023-04-25T01:48:11;9.55;;;3.70;;
54945;SDS011;40846;44.788;20.486;2023-04-25T01:50:38;7.15;;;3.75;;
54945;SDS011;40846;44.788;20.486;2023-04-25T01:53:04;8.68;;;4.05;;
54945;SDS011;40846;44.788;20.486;2023-04-25T01:55:31;7.18;;;3.40;;
54945;SDS011;40846;44.788;20.486;2023-04-25T01:57:57;5.40;;;3.42;;
54945;SDS011;40846;44.788;20.486;2023-04-25T02:00:25;6.47;;;3.22;;
54945;SDS011;40846;44.788;20.486;2023-04-25T02:02:51;8.75;;;4.65;;
54945;SDS011;40846;44.788;20.486;2023-04-25T02:05:20;8.68;;;4.15;;
54945;SDS011;40846;44.788;20.486;2023-04-25T02:07:49;6.03;;;3.70;;
54945;SDS011;40846;44.788;20.486;2023-04-25T02:10:15;7.47;;;3.63;;
54945;SDS011;40846;44.788;20.486;2023-04-25T02:12:41;6.40;;;3.72;;
54945;SDS011;40846;44.788;20.486;2023-04-25T02:15:07;8.73;;;4.28;;
54945;SDS011;40846;44.788;20.486;2023-04-25T02:17:33;8.82;;;4.22;;
54945;SDS011;40846;44.788;20.486;2023-04-25T02:19:59;9.93;;;4.00;;
54945;SDS011;40846;44.788;20.486;2023-04-25T02:22:25;5.57;;;3.90;;
54945;SDS011;40846;44.788;20.486;2023-04-25T02:24:53;7.55;;;3.85;;
54945;SDS011;40846;44.788;20.486;2023-04-25T02:27:20;5.18;;;3.67;;
54945;SDS011;40846;44.788;20.486;2023-04-25T02:29:46;7.75;;;3.95;;
54945;SDS011;40846;44.788;20.486;2023-04-25T02:32:12;8.02;;;4.95;;
54945;SDS011;40846;44.788;20.486;2023-04-25T02:34:38;6.07;;;4.72;;
54945;SDS011;40846;44.788;20.486;2023-04-25T02:37:04;11.63;;;5.07;;
54945;SDS011;40846;44.788;20.486;2023-04-25T02:39:30;8.90;;;5.00;;
54945;SDS011;40846;44.788;20.486;2023-04-25T02:41:56;8.10;;;4.78;;
54945;SDS011;40846;44.788;20.486;2023-04-25T02:44:22;8.63;;;4.53;;
54945;SDS011;40846;44.788;20.486;2023-04-25T02:46:48;8.07;;;4.30;;
54945;SDS011;40846;44.788;20.486;2023-04-25T02:49:14;8.68;;;3.83;;
54945;SDS011;40846;44.788;20.486;2023-04-25T02:51:40;7.53;;;4.05;;
54945;SDS011;40846;44.788;20.486;2023-04-25T02:54:07;5.38;;;3.50;;
54945;SDS011;40846;44.788;20.486;2023-04-25T02:56:33;6.30;;;3.55;;
54945;SDS011;40846;44.788;20.486;2023-04-25T02:58:59;5.35;;;3.17;;
54945;SDS011;40846;44.788;20.486;2023-04-25T03:01:25;5.57;;;3.22;;
54945;SDS011;40846;44.788;20.486;2023-04-25T03:03:51;4.60;;;2.75;;
54945;SDS011;40846;44.788;20.486;2023-04-25T03:06:17;5.68;;;3.97;;
54945;SDS011;40846;44.788;20.486;2023-04-25T03:08:43;4.68;;;2.97;;
54945;SDS011;40846;44.788;20.486;2023-04-25T03:11:09;7.70;;;2.72;;
54945;SDS011;40846;44.788;20.486;2023-04-25T03:13:35;8.23;;;3.33;;
54945;SDS011;40846;44.788;20.486;2023-04-25T03:16:09;6.43;;;3.88;;
54945;SDS011;40846;44.788;20.486;2023-04-25T03:18:35;4.63;;;2.85;;
54945;SDS011;40846;44.788;20.486;2023-04-25T03:21:03;6.60;;;2.90;;
54945;SDS011;40846;44.788;20.486;2023-04-25T03:23:29;4.72;;;3.08;;
54945;SDS011;40846;44.788;20.486;2023-04-25T03:25:56;7.78;;;3.15;;
54945;SDS011;40846;44.788;20.486;2023-04-25T03:28:22;7.60;;;4.20;;
54945;SDS011;40846;44.788;20.486;2023-04-25T03:30:48;4.72;;;3.33;;
54945;SDS011;40846;44.788;20.486;2023-04-25T03:33:14;7.50;;;3.60;;
54945;SDS011;40846;44.788;20.486;2023-04-25T03:35:40;4.70;;;3.17;;
54945;SDS011;40846;44.788;20.486;2023-04-25T03:38:07;5.13;;;3.25;;
54945;SDS011;40846;44.788;20.486;2023-04-25T03:40:34;6.30;;;3.70;;
54945;SDS011;40846;44.788;20.486;2023-04-25T03:43:00;5.35;;;3.13;;
54945;SDS011;40846;44.788;20.486;2023-04-25T03:45:26;8.50;;;3.75;;
54945;SDS011;40846;44.788;20.486;2023-04-25T03:47:52;4.85;;;2.88;;
54945;SDS011;40846;44.788;20.486;2023-04-25T03:50:18;6.78;;;2.88;;
54945;SDS011;40846;44.788;20.486;2023-04-25T03:52:44;4.90;;;3.20;;
54945;SDS011;40846;44.788;20.486;2023-04-25T03:55:10;6.40;;;3.45;;
54945;SDS011;40846;44.788;20.486;2023-04-25T03:57:36;7.45;;;3.40;;
54945;SDS011;40846;44.788;20.486;2023-04-25T04:00:05;6.13;;;3.22;;
54945;SDS011;40846;44.788;20.486;2023-04-25T04:02:31;6.18;;;3.63;;
54945;SDS011;40846;44.788;20.486;2023-04-25T04:04:59;9.18;;;3.30;;
54945;SDS011;40846;44.788;20.486;2023-04-25T04:07:25;7.72;;;3.03;;
54945;SDS011;40846;44.788;20.486;2023-04-25T04:09:53;13.40;;;3.20;;
54945;SDS011;40846;44.788;20.486;2023-04-25T04:12:19;6.72;;;3.53;;
54945;SDS011;40846;44.788;20.486;2023-04-25T04:14:48;6.10;;;3.40;;
54945;SDS011;40846;44.788;20.486;2023-04-25T04:17:14;6.97;;;3.38;;
54945;SDS011;40846;44.788;20.486;2023-04-25T04:19:41;6.25;;;3.25;;
54945;SDS011;40846;44.788;20.486;2023-04-25T04:22:07;7.93;;;3.53;;
54945;SDS011;40846;44.788;20.486;2023-04-25T04:24:33;9.50;;;3.80;;
54945;SDS011;40846;44.788;20.486;2023-04-25T04:27:00;7.05;;;3.95;;
54945;SDS011;40846;44.788;20.486;2023-04-25T04:29:26;9.65;;;3.58;;
54945;SDS011;40846;44.788;20.486;2023-04-25T04:31:52;6.55;;;2.90;;
54945;SDS011;40846;44.788;20.486;2023-04-25T04:34:18;6.80;;;3.10;;
54945;SDS011;40846;44.788;20.486;2023-04-25T04:36:45;9.65;;;3.92;;
54945;SDS011;40846;44.788;20.486;2023-04-25T04:39:12;5.85;;;3.03;;
54945;SDS011;40846;44.788;20.486;2023-04-25T04:41:38;6.07;;;3.03;;
54945;SDS011;40846;44.788;20.486;2023-04-25T04:44:05;5.00;;;3.08;;
54945;SDS011;40846;44.788;20.486;2023-04-25T04:46:36;5.50;;;2.85;;
54945;SDS011;40846;44.788;20.486;2023-04-25T04:49:07;5.28;;;3.50;;
54945;SDS011;40846;44.788;20.486;2023-04-25T04:51:33;6.65;;;3.78;;
54945;SDS011;40846;44.788;20.486;2023-04-25T04:54:00;7.80;;;4.00;;
54945;SDS011;40846;44.788;20.486;2023-04-25T04:56:28;10.25;;;4.03;;
54945;SDS011;40846;44.788;20.486;2023-04-25T04:58:56;8.18;;;4.40;;
54945;SDS011;40846;44.788;20.486;2023-04-25T05:01:27;6.45;;;4.55;;
54945;SDS011;40846;44.788;20.486;2023-04-25T05:03:57;8.70;;;4.97;;
54945;SDS011;40846;44.788;20.486;2023-04-25T05:06:29;17.33;;;7.75;;
54945;SDS011;40846;44.788;20.486;2023-04-25T05:08:56;9.75;;;5.43;;
54945;SDS011;40846;44.788;20.486;2023-04-25T05:11:22;8.68;;;4.07;;
54945;SDS011;40846;44.788;20.486;2023-04-25T05:13:52;8.30;;;3.70;;
54945;SDS011;40846;44.788;20.486;2023-04-25T05:16:18;6.15;;;3.28;;
54945;SDS011;40846;44.788;20.486;2023-04-25T05:18:45;5.50;;;3.10;;
54945;SDS011;40846;44.788;20.486;2023-04-25T05:21:11;3.85;;;2.13;;
54945;SDS011;40846;44.788;20.486;2023-04-25T05:23:37;5.55;;;2.80;;
54945;SDS011;40846;44.788;20.486;2023-04-25T05:26:03;7.30;;;4.55;;
54945;SDS011;40846;44.788;20.486;2023-04-25T05:28:30;5.68;;;3.05;;
54945;SDS011;40846;44.788;20.486;2023-04-25T05:30:56;4.10;;;2.70;;
54945;SDS011;40846;44.788;20.486;2023-04-25T05:33:22;5.88;;;3.38;;
54945;SDS011;40846;44.788;20.486;2023-04-25T05:35:49;5.97;;;3.38;;
54945;SDS011;40846;44.788;20.486;2023-04-25T05:38:16;4.30;;;3.17;;
54945;SDS011;40846;44.788;20.486;2023-04-25T05:40:42;5.38;;;3.35;;
54945;SDS011;40846;44.788;20.486;2023-04-25T05:43:08;4.65;;;3.30;;
54945;SDS011;40846;44.788;20.486;2023-04-25T05:45:34;6.63;;;3.67;;
54945;SDS011;40846;44.788;20.486;2023-04-25T05:48:01;6.38;;;4.07;;
54945;SDS011;40846;44.788;20.486;2023-04-25T05:50:27;6.70;;;4.00;;
54945;SDS011;40846;44.788;20.486;2023-04-25T05:52:53;9.23;;;4.28;;
54945;SDS011;40846;44.788;20.486;2023-04-25T05:55:19;5.55;;;4.05;;
54945;SDS011;40846;44.788;20.486;2023-04-25T05:57:45;9.15;;;4.25;;
54945;SDS011;40846;44.788;20.486;2023-04-25T06:00:20;11.10;;;5.10;;
54945;SDS011;40846;44.788;20.486;2023-04-25T06:02:47;5.97;;;4.25;;
54945;SDS011;40846;44.788;20.486;2023-04-25T06:05:21;8.88;;;4.30;;
54945;SDS011;40846;44.788;20.486;2023-04-25T06:07:47;6.60;;;4.10;;
54945;SDS011;40846;44.788;20.486;2023-04-25T06:10:16;8.73;;;4.30;;
54945;SDS011;40846;44.788;20.486;2023-04-25T06:12:42;7.65;;;4.38;;
54945;SDS011;40846;44.788;20.486;2023-04-25T06:15:08;5.60;;;4.00;;
54945;SDS011;40846;44.788;20.486;2023-04-25T06:17:34;8.35;;;4.10;;
54945;SDS011;40846;44.788;20.486;2023-04-25T06:20:00;16.10;;;5.32;;
54945;SDS011;40846;44.788;20.486;2023-04-25T06:22:26;12.45;;;4.60;;
54945;SDS011;40846;44.788;20.486;2023-04-25T06:24:52;8.20;;;4.35;;
54945;SDS011;40846;44.788;20.486;2023-04-25T06:27:18;10.38;;;4.38;;
54945;SDS011;40846;44.788;20.486;2023-04-25T06:29:43;9.68;;;4.50;;
54945;SDS011;40846;44.788;20.486;2023-04-25T06:32:09;10.73;;;5.18;;
54945;SDS011;40846;44.788;20.486;2023-04-25T06:34:35;9.15;;;5.60;;
54945;SDS011;40846;44.788;20.486;2023-04-25T06:37:00;9.32;;;5.07;;
54945;SDS011;40846;44.788;20.486;2023-04-25T06:39:26;6.25;;;4.10;;
54945;SDS011;40846;44.788;20.486;2023-04-25T06:41:55;16.35;;;4.72;;
54945;SDS011;40846;44.788;20.486;2023-04-25T06:44:21;7.93;;;3.47;;
54945;SDS011;40846;44.788;20.486;2023-04-25T06:46:49;6.68;;;4.20;;
54945;SDS011;40846;44.788;20.486;2023-04-25T06:49:14;8.15;;;3.60;;
54945;SDS011;40846;44.788;20.486;2023-04-25T06:51:40;7.75;;;3.90;;
54945;SDS011;40846;44.788;20.486;2023-04-25T06:54:06;6.30;;;3.83;;
54945;SDS011;40846;44.788;20.486;2023-04-25T06:56:35;8.55;;;4.35;;
54945;SDS011;40846;44.788;20.486;2023-04-25T06:59:01;8.00;;;5.15;;
54945;SDS011;40846;44.788;20.486;2023-04-25T07:01:26;8.18;;;4.00;;
54945;SDS011;40846;44.788;20.486;2023-04-25T07:03:54;7.72;;;3.70;;
54945;SDS011;40846;44.788;20.486;2023-04-25T07:06:23;9.57;;;4.05;;
54945;SDS011;40846;44.788;20.486;2023-04-25T07:08:50;9.20;;;4.13;;
54945;SDS011;40846;44.788;20.486;2023-04-25T07:14:56;16.02;;;4.65;;
54945;SDS011;40846;44.788;20.486;2023-04-25T07:17:46;6.55;;;3.83;;
54945;SDS011;40846;44.788;20.486;2023-04-25T07:21:08;9.15;;;3.83;;
54945;SDS011;40846;44.788;20.486;2023-04-25T07:23:36;10.15;;;3.85;;
54945;SDS011;40846;44.788;20.486;2023-04-25T07:26:17;7.03;;;4.07;;
54945;SDS011;40846;44.788;20.486;2023-04-25T07:28:44;7.78;;;4.18;;
54945;SDS011;40846;44.788;20.486;2023-04-25T07:31:27;8.15;;;4.10;;
54945;SDS011;40846;44.788;20.486;2023-04-25T07:34:25;6.05;;;3.70;;
54945;SDS011;40846;44.788;20.486;2023-04-25T07:36:50;14.68;;;4.18;;
54945;SDS011;40846;44.788;20.486;2023-04-25T07:39:18;5.95;;;3.80;;
54945;SDS011;40846;44.788;20.486;2023-04-25T07:42:05;6.05;;;3.72;;
54945;SDS011;40846;44.788;20.486;2023-04-25T07:44:34;6.93;;;3.75;;
54945;SDS011;40846;44.788;20.486;2023-04-25T07:47:07;9.90;;;4.20;;
54945;SDS011;40846;44.788;20.486;2023-04-25T07:49:36;9.50;;;3.92;;
54945;SDS011;40846;44.788;20.486;2023-04-25T07:52:05;9.88;;;4.35;;
54945;SDS011;40846;44.788;20.486;2023-04-25T07:54:43;10.82;;;3.63;;
54945;SDS011;40846;44.788;20.486;2023-04-25T07:57:25;11.30;;;6.03;;
54945;SDS011;40846;44.788;20.486;2023-04-25T08:00:00;6.95;;;3.45;;
54945;SDS011;40846;44.788;20.486;2023-04-25T08:02:28;7.45;;;3.88;;
54945;SDS011;40846;44.788;20.486;2023-04-25T08:05:02;6.03;;;3.75;;
54945;SDS011;40846;44.788;20.486;2023-04-25T08:07:31;7.50;;;3.85;;
54945;SDS011;40846;44.788;20.486;2023-04-25T08:09:58;6.43;;;3.30;;
54945;SDS011;40846;44.788;20.486;2023-04-25T08:12:29;5.75;;;3.13;;
54945;SDS011;40846;44.788;20.486;2023-04-25T08:15:04;16.00;;;3.92;;
54945;SDS011;40846;44.788;20.486;2023-04-25T08:17:30;4.72;;;3.17;;
54945;SDS011;40846;44.788;20.486;2023-04-25T08:19:56;9.95;;;3.35;;
54945;SDS011;40846;44.788;20.486;2023-04-25T08:22:22;5.80;;;3.63;;
54945;SDS011;40846;44.788;20.486;2023-04-25T08:24:47;5.90;;;3.63;;
54945;SDS011;40846;44.788;20.486;2023-04-25T08:27:13;5.85;;;3.85;;
54945;SDS011;40846;44.788;20.486;2023-04-25T08:29:41;7.20;;;3.42;;
54945;SDS011;40846;44.788;20.486;2023-04-25T08:32:07;5.43;;;3.03;;
54945;SDS011;40846;44.788;20.486;2023-04-25T08:34:33;8.18;;;3.95;;
54945;SDS011;40846;44.788;20.486;2023-04-25T08:36:59;6.57;;;3.70;;
54945;SDS011;40846;44.788;20.486;2023-04-25T08:39:25;6.60;;;3.75;;
54945;SDS011;40846;44.788;20.486;2023-04-25T08:41:51;6.00;;;3.50;;
54945;SDS011;40846;44.788;20.486;2023-04-25T08:44:17;7.63;;;3.42;;
54945;SDS011;40846;44.788;20.486;2023-04-25T08:46:45;13.63;;;3.60;;
54945;SDS011;40846;44.788;20.486;2023-04-25T08:49:14;8.10;;;4.80;;
54945;SDS011;40846;44.788;20.486;2023-04-25T08:51:44;6.68;;;3.80;;
54945;SDS011;40846;44.788;20.486;2023-04-25T08:54:15;8.18;;;3.17;;
54945;SDS011;40846;44.788;20.486;2023-04-25T08:56:43;4.88;;;2.72;;
54945;SDS011;40846;44.788;20.486;2023-04-25T08:59:14;8.57;;;3.67;;
54945;SDS011;40846;44.788;20.486;2023-04-25T09:01:48;5.95;;;3.53;;
54945;SDS011;40846;44.788;20.486;2023-04-25T09:04:14;7.43;;;3.45;;
54945;SDS011;40846;44.788;20.486;2023-04-25T09:06:40;6.70;;;3.03;;
54945;SDS011;40846;44.788;20.486;2023-04-25T09:09:07;10.75;;;3.45;;
54945;SDS011;40846;44.788;20.486;2023-04-25T09:11:34;8.70;;;3.08;;
54945;SDS011;40846;44.788;20.486;2023-04-25T09:14:36;5.50;;;2.97;;
54945;SDS011;40846;44.788;20.486;2023-04-25T09:19:22;4.68;;;2.60;;
54945;SDS011;40846;44.788;20.486;2023-04-25T09:21:58;16.02;;;4.18;;
54945;SDS011;40846;44.788;20.486;2023-04-25T09:27:03;6.25;;;2.15;;
54945;SDS011;40846;44.788;20.486;2023-04-25T09:29:36;8.07;;;2.42;;
54945;SDS011;40846;44.788;20.486;2023-04-25T09:35:07;4.28;;;2.10;;
54945;SDS011;40846;44.788;20.486;2023-04-25T09:37:34;3.85;;;2.33;;
54945;SDS011;40846;44.788;20.486;2023-04-25T09:40:05;5.00;;;2.55;;
54945;SDS011;40846;44.788;20.486;2023-04-25T09:42:32;7.35;;;3.20;;
54945;SDS011;40846;44.788;20.486;2023-04-25T09:45:00;5.47;;;2.67;;
54945;SDS011;40846;44.788;20.486;2023-04-25T09:47:36;5.28;;;2.65;;
54945;SDS011;40846;44.788;20.486;2023-04-25T09:50:04;6.22;;;2.85;;
54945;SDS011;40846;44.788;20.486;2023-04-25T09:52:39;6.70;;;2.70;;
54945;SDS011;40846;44.788;20.486;2023-04-25T09:55:14;9.57;;;2.83;;
54945;SDS011;40846;44.788;20.486;2023-04-25T09:57:41;6.25;;;2.92;;
54945;SDS011;40846;44.788;20.486;2023-04-25T10:00:16;7.53;;;3.03;;
54945;SDS011;40846;44.788;20.486;2023-04-25T10:02:43;3.88;;;1.63;;
54945;SDS011;40846;44.788;20.486;2023-04-25T10:05:13;9.75;;;2.15;;
54945;SDS011;40846;44.788;20.486;2023-04-25T10:07:40;8.30;;;2.58;;
54945;SDS011;40846;44.788;20.486;2023-04-25T10:10:06;4.70;;;2.38;;
54945;SDS011;40846;44.788;20.486;2023-04-25T10:12:32;4.47;;;2.13;;
54945;SDS011;40846;44.788;20.486;2023-04-25T10:14:59;4.38;;;1.75;;
54945;SDS011;40846;44.788;20.486;2023-04-25T10:17:26;11.52;;;3.15;;
54945;SDS011;40846;44.788;20.486;2023-04-25T10:19:55;9.68;;;3.25;;
54945;SDS011;40846;44.788;20.486;2023-04-25T10:22:37;4.05;;;2.20;;
54945;SDS011;40846;44.788;20.486;2023-04-25T10:25:07;5.93;;;3.25;;
54945;SDS011;40846;44.788;20.486;2023-04-25T10:27:34;7.93;;;2.78;;
54945;SDS011;40846;44.788;20.486;2023-04-25T10:30:04;9.85;;;2.70;;
54945;SDS011;40846;44.788;20.486;2023-04-25T10:32:37;5.80;;;2.80;;
54945;SDS011;40846;44.788;20.486;2023-04-25T10:35:37;9.73;;;2.75;;
54945;SDS011;40846;44.788;20.486;2023-04-25T10:38:00;4.80;;;2.17;;
54945;SDS011;40846;44.788;20.486;2023-04-25T10:40:32;6.97;;;3.13;;
54945;SDS011;40846;44.788;20.486;2023-04-25T10:45:55;9.18;;;3.03;;
54945;SDS011;40846;44.788;20.486;2023-04-25T10:53:35;6.47;;;2.40;;
54945;SDS011;40846;44.788;20.486;2023-04-25T10:56:09;10.13;;;2.30;;
54945;SDS011;40846;44.788;20.486;2023-04-25T10:58:44;7.30;;;2.47;;
54945;SDS011;40846;44.788;20.486;2023-04-25T11:01:14;6.47;;;1.90;;
54945;SDS011;40846;44.788;20.486;2023-04-25T11:03:47;3.78;;;1.98;;
54945;SDS011;40846;44.788;20.486;2023-04-25T11:06:28;2.65;;;1.55;;
54945;SDS011;40846;44.788;20.486;2023-04-25T11:11:38;8.80;;;1.90;;
54945;SDS011;40846;44.788;20.486;2023-04-25T11:14:04;5.85;;;2.30;;
54945;SDS011;40846;44.788;20.486;2023-04-25T11:16:30;3.00;;;1.65;;
54945;SDS011;40846;44.788;20.486;2023-04-25T11:18:57;4.32;;;1.80;;
54945;SDS011;40846;44.788;20.486;2023-04-25T11:21:25;9.98;;;2.20;;
54945;SDS011;40846;44.788;20.486;2023-04-25T11:23:54;8.02;;;2.28;;
54945;SDS011;40846;44.788;20.486;2023-04-25T11:26:24;4.93;;;2.05;;
54945;SDS011;40846;44.788;20.486;2023-04-25T11:28:49;6.53;;;2.15;;
54945;SDS011;40846;44.788;20.486;2023-04-25T11:31:15;4.45;;;1.75;;
54945;SDS011;40846;44.788;20.486;2023-04-25T11:33:45;5.28;;;2.05;;
54945;SDS011;40846;44.788;20.486;2023-04-25T11:36:11;3.70;;;2.10;;
54945;SDS011;40846;44.788;20.486;2023-04-25T11:38:37;3.08;;;1.92;;
54945;SDS011;40846;44.788;20.486;2023-04-25T11:41:03;5.97;;;2.58;;
54945;SDS011;40846;44.788;20.486;2023-04-25T11:43:29;3.97;;;1.83;;
54945;SDS011;40846;44.788;20.486;2023-04-25T11:45:55;6.80;;;2.20;;
54945;SDS011;40846;44.788;20.486;2023-04-25T11:48:24;4.65;;;2.55;;
54945;SDS011;40846;44.788;20.486;2023-04-25T11:50:50;3.75;;;2.00;;
54945;SDS011;40846;44.788;20.486;2023-04-25T11:53:17;5.40;;;2.45;;
54945;SDS011;40846;44.788;20.486;2023-04-25T11:55:43;3.65;;;1.90;;
54945;SDS011;40846;44.788;20.486;2023-04-25T12:00:38;4.75;;;1.90;;
54945;SDS011;40846;44.788;20.486;2023-04-25T12:03:08;3.63;;;1.83;;
54945;SDS011;40846;44.788;20.486;2023-04-25T12:06:09;7.57;;;2.17;;
54945;SDS011;40846;44.788;20.486;2023-04-25T12:09:07;6.20;;;2.20;;
54945;SDS011;40846;44.788;20.486;2023-04-25T12:14:41;5.65;;;2.17;;
54945;SDS011;40846;44.788;20.486;2023-04-25T12:17:13;6.63;;;1.90;;
54945;SDS011;40846;44.788;20.486;2023-04-25T12:19:39;3.53;;;2.03;;
54945;SDS011;40846;44.788;20.486;2023-04-25T12:22:18;3.35;;;1.80;;
54945;SDS011;40846;44.788;20.486;2023-04-25T12:24:45;3.55;;;2.08;;
54945;SDS011;40846;44.788;20.486;2023-04-25T12:29:49;4.57;;;1.75;;
54945;SDS011;40846;44.788;20.486;2023-04-25T12:32:26;5.00;;;2.03;;
54945;SDS011;40846;44.788;20.486;2023-04-25T12:34:59;5.05;;;1.80;;
54945;SDS011;40846;44.788;20.486;2023-04-25T12:37:44;3.85;;;1.77;;
54945;SDS011;40846;44.788;20.486;2023-04-25T12:40:17;3.67;;;1.88;;
54945;SDS011;40846;44.788;20.486;2023-04-25T12:42:46;5.45;;;2.10;;
54945;SDS011;40846;44.788;20.486;2023-04-25T12:45:12;5.38;;;2.15;;
54945;SDS011;40846;44.788;20.486;2023-04-25T12:47:38;4.65;;;2.30;;
54945;SDS011;40846;44.788;20.486;2023-04-25T12:50:03;12.65;;;2.33;;
54945;SDS011;40846;44.788;20.486;2023-04-25T12:52:29;10.18;;;1.73;;
54945;SDS011;40846;44.788;20.486;2023-04-25T12:55:06;5.00;;;2.00;;
54945;SDS011;40846;44.788;20.486;2023-04-25T12:57:32;6.18;;;1.80;;
54945;SDS011;40846;44.788;20.486;2023-04-25T12:59:58;8.57;;;2.20;;
54945;SDS011;40846;44.788;20.486;2023-04-25T13:02:24;6.97;;;2.10;;
54945;SDS011;40846;44.788;20.486;2023-04-25T13:04:50;3.20;;;1.60;;
54945;SDS011;40846;44.788;20.486;2023-04-25T13:07:16;3.28;;;1.50;;
54945;SDS011;40846;44.788;20.486;2023-04-25T13:09:42;3.55;;;1.80;;
54945;SDS011;40846;44.788;20.486;2023-04-25T13:12:08;4.07;;;1.90;;
54945;SDS011;40846;44.788;20.486;2023-04-25T13:14:36;5.20;;;1.70;;
54945;SDS011;40846;44.788;20.486;2023-04-25T13:17:02;3.58;;;1.60;;
54945;SDS011;40846;44.788;20.486;2023-04-25T13:19:28;2.97;;;1.83;;
54945;SDS011;40846;44.788;20.486;2023-04-25T13:21:54;6.00;;;1.90;;
54945;SDS011;40846;44.788;20.486;2023-04-25T13:24:20;9.40;;;2.50;;
54945;SDS011;40846;44.788;20.486;2023-04-25T13:26:46;4.05;;;2.83;;
54945;SDS011;40846;44.788;20.486;2023-04-25T13:29:12;4.70;;;2.25;;
54945;SDS011;40846;44.788;20.486;2023-04-25T13:31:38;6.60;;;2.00;;
54945;SDS011;40846;44.788;20.486;2023-04-25T13:34:04;5.72;;;1.90;;
54945;SDS011;40846;44.788;20.486;2023-04-25T13:36:30;5.90;;;1.98;;
54945;SDS011;40846;44.788;20.486;2023-04-25T13:38:56;4.22;;;2.17;;
54945;SDS011;40846;44.788;20.486;2023-04-25T13:41:25;4.68;;;1.80;;
54945;SDS011;40846;44.788;20.486;2023-04-25T13:43:50;7.05;;;1.80;;
54945;SDS011;40846;44.788;20.486;2023-04-25T13:46:16;8.32;;;2.00;;
54945;SDS011;40846;44.788;20.486;2023-04-25T13:48:42;8.35;;;2.63;;
54945;SDS011;40846;44.788;20.486;2023-04-25T13:51:11;5.22;;;1.63;;
54945;SDS011;40846;44.788;20.486;2023-04-25T13:53:37;3.83;;;2.17;;
54945;SDS011;40846;44.788;20.486;2023-04-25T13:56:04;10.85;;;2.50;;
54945;SDS011;40846;44.788;20.486;2023-04-25T13:58:30;8.85;;;4.05;;
54945;SDS011;40846;44.788;20.486;2023-04-25T14:00:57;6.80;;;2.67;;
54945;SDS011;40846;44.788;20.486;2023-04-25T14:03:23;9.63;;;3.70;;
54945;SDS011;40846;44.788;20.486;2023-04-25T14:05:49;7.85;;;2.60;;
54945;SDS011;40846;44.788;20.486;2023-04-25T14:08:16;3.60;;;1.92;;
54945;SDS011;40846;44.788;20.486;2023-04-25T14:10:41;8.07;;;2.40;;
54945;SDS011;40846;44.788;20.486;2023-04-25T14:13:07;2.80;;;1.70;;
54945;SDS011;40846;44.788;20.486;2023-04-25T14:15:33;4.97;;;1.98;;
54945;SDS011;40846;44.788;20.486;2023-04-25T14:17:59;3.00;;;1.60;;
54945;SDS011;40846;44.788;20.486;2023-04-25T14:20:25;3.20;;;1.67;;
54945;SDS011;40846;44.788;20.486;2023-04-25T14:22:51;3.17;;;1.75;;
54945;SDS011;40846;44.788;20.486;2023-04-25T14:25:19;3.95;;;1.90;;
54945;SDS011;40846;44.788;20.486;2023-04-25T14:27:46;3.90;;;1.70;;
54945;SDS011;40846;44.788;20.486;2023-04-25T14:30:15;3.58;;;1.60;;
54945;SDS011;40846;44.788;20.486;2023-04-25T14:32:44;5.13;;;2.10;;
54945;SDS011;40846;44.788;20.486;2023-04-25T14:35:10;2.97;;;1.70;;
54945;SDS011;40846;44.788;20.486;2023-04-25T14:37:39;4.38;;;2.10;;
54945;SDS011;40846;44.788;20.486;2023-04-25T14:40:07;6.35;;;1.70;;
54945;SDS011;40846;44.788;20.486;2023-04-25T14:42:36;16.63;;;2.22;;
54945;SDS011;40846;44.788;20.486;2023-04-25T14:45:03;5.78;;;2.15;;
54945;SDS011;40846;44.788;20.486;2023-04-25T14:47:42;8.35;;;2.00;;
54945;SDS011;40846;44.788;20.486;2023-04-25T14:50:11;3.53;;;1.45;;
54945;SDS011;40846;44.788;20.486;2023-04-25T14:52:37;2.97;;;1.83;;
54945;SDS011;40846;44.788;20.486;2023-04-25T14:55:04;3.97;;;1.70;;
54945;SDS011;40846;44.788;20.486;2023-04-25T14:57:33;7.35;;;2.00;;
54945;SDS011;40846;44.788;20.486;2023-04-25T14:59:59;4.75;;;1.90;;
54945;SDS011;40846;44.788;20.486;2023-04-25T15:02:25;6.88;;;1.77;;
54945;SDS011;40846;44.788;20.486;2023-04-25T15:04:52;4.70;;;1.90;;
54945;SDS011;40846;44.788;20.486;2023-04-25T15:07:18;4.45;;;2.80;;
54945;SDS011;40846;44.788;20.486;2023-04-25T15:09:44;3.38;;;1.45;;